createdAt,value
2023-03-23T15:59:13.592Z,18.33
2023-03-23T16:01:45.746Z,18.30
2023-03-23T16:04:19.550Z,18.24
2023-03-23T16:06:53.126Z,18.19
2023-03-23T16:09:25.110Z,18.14
2023-03-23T16:11:57.828Z,18.19
2023-03-23T16:14:29.512Z,18.13
2023-03-23T16:17:01.211Z,18.05
2023-03-23T16:19:33.104Z,18.06
2023-03-23T16:22:06.091Z,17.90
2023-03-23T16:24:38.484Z,17.83
2023-03-23T16:27:11.426Z,17.81
2023-03-23T16:30:00.392Z,17.81
2023-03-23T16:35:05.977Z,17.83
2023-03-23T16:37:37.826Z,17.74
2023-03-23T16:40:12.987Z,17.70
2023-03-23T16:42:48.783Z,17.61
2023-03-23T16:45:24.229Z,17.51
2023-03-23T16:48:01.397Z,17.40
2023-03-23T16:50:34.152Z,17.33
2023-03-23T16:53:09.830Z,17.26
2023-03-23T16:55:42.227Z,17.23
2023-03-23T16:58:18.187Z,17.23
2023-03-23T17:00:52.096Z,17.18
2023-03-23T17:03:23.876Z,17.14
2023-03-23T17:05:55.704Z,17.12
2023-03-23T17:08:28.626Z,17.10
2023-03-23T17:11:00.736Z,17.09
2023-03-23T17:13:34.163Z,17.05
2023-03-23T17:16:06.384Z,17.03
2023-03-23T17:18:38.213Z,16.98
2023-03-23T17:21:10.279Z,16.97
2023-03-23T17:23:41.967Z,16.95
2023-03-23T17:26:13.648Z,16.91
2023-03-23T17:28:45.890Z,16.88
2023-03-23T17:31:17.732Z,16.83
2023-03-23T17:33:49.642Z,16.76
2023-03-23T17:36:21.497Z,16.74
2023-03-23T17:38:53.264Z,16.69
2023-03-23T17:41:24.937Z,16.65
2023-03-23T17:43:56.674Z,16.56
2023-03-23T17:46:28.400Z,16.54
2023-03-23T17:49:00.106Z,16.55
2023-03-23T17:51:31.813Z,16.49
2023-03-23T17:54:03.831Z,16.43
2023-03-23T17:56:35.773Z,16.37
2023-03-23T17:59:08.059Z,16.36
2023-03-23T18:01:39.835Z,16.38
2023-03-23T18:04:11.577Z,16.39
2023-03-23T18:06:43.530Z,16.39
2023-03-23T18:09:15.704Z,16.39
2023-03-23T18:11:47.392Z,16.41
2023-03-23T18:14:19.748Z,16.43
2023-03-23T18:16:53.067Z,16.39
2023-03-23T18:19:24.902Z,16.39
2023-03-23T18:21:56.698Z,16.40
2023-03-23T18:24:28.359Z,16.38
2023-03-23T18:27:02.131Z,16.44
2023-03-23T18:29:33.792Z,16.38
2023-03-23T18:32:07.227Z,16.37
2023-03-23T18:34:41.670Z,16.37
2023-03-23T18:37:13.636Z,16.37
2023-03-23T18:39:45.388Z,16.38
2023-03-23T18:42:17.103Z,16.38
2023-03-23T18:44:48.947Z,16.38
2023-03-23T18:47:21.535Z,16.38
2023-03-23T18:49:55.324Z,16.36
2023-03-23T18:52:30.188Z,16.37
2023-03-23T18:55:02.087Z,16.35
2023-03-23T18:57:34.012Z,16.34
2023-03-23T19:00:08.056Z,16.34
2023-03-23T19:02:40.154Z,16.35
2023-03-23T19:05:12.174Z,16.34
2023-03-23T19:07:44.042Z,16.34
2023-03-23T19:10:17.318Z,16.34
2023-03-23T19:12:50.430Z,16.33
2023-03-23T19:15:24.714Z,16.33
2023-03-23T19:17:59.834Z,16.33
2023-03-23T19:21:06.059Z,16.32
2023-03-23T19:23:24.446Z,16.31
2023-03-23T19:25:57.047Z,16.31
2023-03-23T19:31:03.343Z,16.27
2023-03-23T19:33:35.614Z,16.25
2023-03-23T19:36:13.092Z,16.24
2023-03-23T19:38:45.424Z,16.26
2023-03-23T19:41:19.007Z,16.24
2023-03-23T19:43:51.439Z,16.23
2023-03-23T19:46:24.057Z,16.22
2023-03-23T19:48:56.524Z,16.20
2023-03-23T19:51:28.664Z,16.17
2023-03-23T19:54:01.049Z,16.18
2023-03-23T19:56:34.453Z,16.19
2023-03-23T19:59:09.574Z,16.20
2023-03-23T20:01:42.400Z,16.20
2023-03-23T20:04:14.159Z,16.23
2023-03-23T20:06:46.309Z,16.19
2023-03-23T20:09:18.505Z,16.20
2023-03-23T20:11:50.509Z,16.19
2023-03-23T20:14:22.659Z,16.16
2023-03-23T20:16:54.959Z,16.18
2023-03-23T20:19:28.755Z,16.20
2023-03-23T20:22:01.676Z,16.18
2023-03-23T20:24:33.634Z,16.18
2023-03-23T20:27:05.393Z,16.15
2023-03-23T20:29:37.098Z,16.14
2023-03-23T20:32:12.439Z,16.13
2023-03-23T20:34:49.236Z,16.13
2023-03-23T20:37:20.983Z,16.14
2023-03-23T20:39:52.894Z,16.15
2023-03-23T20:42:29.448Z,16.12
2023-03-23T20:45:03.714Z,16.11
2023-03-23T20:47:35.638Z,16.09
2023-03-23T20:50:09.482Z,16.07
2023-03-23T20:52:41.727Z,16.07
2023-03-23T20:55:15.311Z,16.06
2023-03-23T20:57:47.040Z,16.04
2023-03-23T21:00:18.893Z,16.01
2023-03-23T21:02:54.189Z,15.98
2023-03-23T21:05:26.037Z,15.93
2023-03-23T21:07:58.985Z,15.83
2023-03-23T21:10:30.650Z,15.79
2023-03-23T21:13:02.639Z,15.79
2023-03-23T21:15:34.676Z,15.78
2023-03-23T21:18:06.627Z,15.75
2023-03-23T21:20:38.896Z,15.72
2023-03-23T21:23:11.128Z,15.70
2023-03-23T21:25:44.619Z,15.68
2023-03-23T21:28:17.345Z,15.63
2023-03-23T21:30:52.465Z,15.59
2023-03-23T21:33:24.158Z,15.58
2023-03-23T21:35:55.967Z,15.58
2023-03-23T21:38:28.746Z,15.55
2023-03-23T21:41:07.552Z,15.54
2023-03-23T21:43:40.694Z,15.50
2023-03-23T21:46:18.195Z,15.50
2023-03-23T21:48:53.178Z,15.47
2023-03-23T21:51:27.793Z,15.46
2023-03-23T21:54:00.811Z,15.42
2023-03-23T21:56:32.802Z,15.38
2023-03-23T21:59:07.497Z,15.37
2023-03-23T22:01:40.828Z,15.35
2023-03-23T22:04:12.467Z,15.35
2023-03-23T22:06:44.630Z,15.34
2023-03-23T22:09:17.303Z,15.33
2023-03-23T22:11:53.595Z,15.32
2023-03-23T22:14:25.646Z,15.27
2023-03-23T22:16:57.451Z,15.26
2023-03-23T22:19:29.174Z,15.22
2023-03-23T22:22:04.126Z,15.20
2023-03-23T22:24:38.676Z,15.15
2023-03-23T22:27:10.909Z,15.13
2023-03-23T22:29:42.845Z,15.10
2023-03-23T22:32:14.731Z,15.08
2023-03-23T22:34:47.362Z,15.06
2023-03-23T22:37:19.216Z,15.04
2023-03-23T22:39:51.215Z,15.03
2023-03-23T22:42:22.875Z,15.02
2023-03-23T22:44:54.522Z,15.00
2023-03-23T22:47:26.184Z,14.99
2023-03-23T22:49:57.875Z,14.99
2023-03-23T22:52:33.794Z,14.97
2023-03-23T22:55:07.403Z,14.96
2023-03-23T22:57:41.072Z,14.97
2023-03-23T23:00:18.565Z,14.96
2023-03-23T23:02:50.582Z,14.95
2023-03-23T23:05:22.295Z,14.92
2023-03-23T23:07:53.980Z,14.91
2023-03-23T23:10:25.873Z,14.84
2023-03-23T23:12:57.755Z,14.84
2023-03-23T23:15:29.399Z,14.82
2023-03-23T23:18:01.247Z,14.81
2023-03-23T23:20:33.408Z,14.81
2023-03-23T23:23:05.867Z,14.80
2023-03-23T23:25:37.771Z,14.78
2023-03-23T23:28:12.634Z,14.78
2023-03-23T23:30:45.615Z,14.76
2023-03-23T23:33:18.824Z,14.74
2023-03-23T23:35:50.520Z,14.78
2023-03-23T23:38:22.263Z,14.74
2023-03-23T23:40:53.903Z,14.78
2023-03-23T23:43:25.559Z,14.77
2023-03-23T23:45:57.379Z,14.73
2023-03-23T23:48:29.065Z,14.73
2023-03-23T23:51:00.918Z,14.73
2023-03-23T23:53:34.080Z,14.73
2023-03-23T23:56:09.647Z,14.72
2023-03-23T23:58:41.336Z,14.72
